Flight Track Log - Related Links

Times and Time Zones

All times are in EDT time to prevent confusion due to time zone crossing. See the N210MK flight status page for this flight to view local times or setup timezone preferences in your user account.

Time Position Orientation Groundspeed Altitude Reporting Facility
EDT Latitude Longitude Course Direction KTS MPH feet Rate Location/Type
Fri 12:56:37 PM 40.2319 -79.4028 162° South 95 109 2,800  Level Cleveland Center
Fri 12:57:56 PM 40.1944 -79.3872 162° South 107 123 4,000 812 Climbing Cleveland Center
Fri 12:58:50 PM 40.1692 -79.3767 162° South 105 121 4,600 771 Climbing Cleveland Center
Fri 12:59:45 PM 40.1611 -79.4014 247° West 91 105 5,400 783 Climbing Cleveland Center
Fri 01:00:45 PM 40.1903 -79.4008 North 106 122 6,100 645 Climbing Cleveland Center
Fri 01:01:46 PM 40.2214 -79.3947 North 114 131 6,700 656 Climbing Cleveland Center
Fri 01:02:53 PM 40.2589 -79.3833 13° North 125 144 7,500 661 Climbing Cleveland Center
Fri 01:03:53 PM 40.2964 -79.3744 10° North 123 142 8,100 347 Climbing Cleveland Center
Fri 01:04:54 PM 40.3358 -79.3711 North 145 167 8,200 49 Climbing Cleveland Center
Fri 01:05:56 PM 40.3817 -79.3511 18° North 172 198 8,200 197 Level Cleveland Center
Fri 01:06:56 PM 40.4272 -79.3422 North 177 204 8,600 550 Climbing Cleveland Center
Fri 01:07:56 PM 40.4608 -79.3525 347° North 150 173 9,300 750 Climbing Cleveland Center
Fri 01:08:56 PM 40.4903 -79.3708 335° Northwest 127 146 10,100 400 Climbing Cleveland Center
Fri 01:09:56 PM 40.5217 -79.4003 325° Northwest 121 139 10,100  Level Cleveland Center
Fri 01:10:56 PM 40.5408 -79.4439 300° West 133 153 10,100  Level Cleveland Center
Fri 01:11:56 PM 40.5561 -79.4900 294° West 138 159 10,100  Level Cleveland Center
Fri 01:12:56 PM 40.5711 -79.5361 293° West 138 159 10,100  Level Cleveland Center
Fri 01:13:56 PM 40.5861 -79.5853 292° West 138 159 10,100  Level Cleveland Center
Fri 01:14:56 PM 40.5969 -79.6342 286° West 138 159 10,100  Level Cleveland Center
Fri 01:15:56 PM 40.6036 -79.6889 279° West 144 166 10,100  Level Cleveland Center
Fri 01:16:56 PM 40.6061 -79.7436 273° West 144 166 10,100  Level Cleveland Center
Fri 01:17:56 PM 40.6064 -79.7956 270° West 144 166 10,100  Level Cleveland Center
Fri 01:18:56 PM 40.6067 -79.8447 270° West 139 160 10,100  Level Cleveland Center
Fri 01:20:00 PM 40.6232 -79.8904 296° West  Level FlightAware Approximate
Fri 01:26:08 PM 40.7042 -80.1558 295° West 137 158 10,100  Level Cleveland Center
Fri 01:27:00 PM 40.7316 -80.1907 296° West  Level FlightAware Approximate
Fri 01:27:08 PM 40.7211 -80.2022 296° West 145 167 10,100  Level Cleveland Center
Fri 01:28:00 PM 40.7470 -80.2337 295° West  Level FlightAware Approximate
Fri 01:28:08 PM 40.7381 -80.2517 294° West 145 167 10,100  Level Cleveland Center
Fri 01:29:00 PM 40.7624 -80.2767 295° West  Level FlightAware Approximate
Fri 01:29:08 PM 40.7528 -80.3008 292° West 145 167 10,100  Level Cleveland Center
Fri 01:30:00 PM 40.7778 -80.3198 295° West  Level FlightAware Approximate
Fri 01:31:08 PM 40.7861 -80.3967 295° West 143 165 10,100  Level Cleveland Center
Fri 01:32:08 PM 40.7989 -80.4486 288° West 138 159 10,100  Level Cleveland Center
Fri 01:33:08 PM 40.8092 -80.5008 285° West 138 159 10,100  Level Cleveland Center
Fri 01:34:08 PM 40.8239 -80.5475 293° West 138 159 10,100  Level Cleveland Center
Fri 01:35:08 PM 40.8511 -80.5858 313° West 138 159 10,100  Level Cleveland Center
Fri 01:36:08 PM 40.8781 -80.6189 317° Northwest 138 159 10,100  Level Cleveland Center
Fri 01:37:08 PM 40.9094 -80.6572 317° Northwest 144 166 10,100  Level Cleveland Center
Fri 01:38:08 PM 40.9258 -80.7042 295° West 144 166 10,100  Level Cleveland Center
Fri 01:39:08 PM 40.9406 -80.7536 292° West 144 166 10,100  Level Cleveland Center
Fri 01:40:08 PM 40.9572 -80.8003 295° West 144 166 10,100  Level Cleveland Center
Fri 01:41:08 PM 40.9736 -80.8500 294° West 144 166 10,100  Level Cleveland Center
Fri 01:42:08 PM 40.9881 -80.8967 292° West 144 166 10,100  Level Cleveland Center
Fri 01:43:08 PM 41.0025 -80.9464 291° West 144 166 10,100  Level Cleveland Center
Fri 01:44:08 PM 41.0150 -80.9958 289° West 149 171 10,100  Level Cleveland Center
Fri 01:45:03 PM 41.0253 -81.0456 285° West 142 163 10,100  Level Cleveland Center
Fri 01:46:08 PM 41.0375 -81.0950 288° West 158 182 10,100  Level Cleveland Center
Fri 01:47:08 PM 41.0456 -81.1531 280° West 153 176 10,100  Level Cleveland Center
Fri 01:48:08 PM 41.0597 -81.2028 291° West 147 169 10,100  Level Cleveland Center
Fri 01:49:08 PM 41.0700 -81.2525 285° West 141 162 10,100  Level Cleveland Center
Fri 01:50:08 PM 41.0864 -81.2994 295° West 146 168 10,100  Level Cleveland Center
Fri 01:51:08 PM 41.1047 -81.3464 297° West 146 168 10,100  Level Cleveland Center
Fri 01:52:08 PM 41.1253 -81.3964 299° West 151 174 10,100  Level Cleveland Center
Fri 01:53:26 PM 41.1500 -81.4544 300° West 146 168 10,100  Level Cleveland Center
Fri 01:54:08 PM 41.1664 -81.4878 303° West 145 167 10,100  Level Cleveland Center
Fri 01:55:15 PM 41.1847 -81.5378 296° West 141 162 10,100  Level Cleveland Center
Fri 01:56:10 PM 41.1989 -81.5819 293° West 143 165 10,100  Level Cleveland Center
Fri 01:57:17 PM 41.2108 -81.6403 285° West 141 162 10,100  Level Cleveland Center
Fri 01:58:11 PM 41.2231 -81.6875 289° West 141 162 10,100  Level Cleveland Center
Fri 01:59:36 PM 41.2389 -81.7567 287° West 141 162 10,100  Level Cleveland Center
Fri 02:00:13 PM 41.2450 -81.7844 286° West 142 163 10,100  Level Cleveland Center
Fri 02:01:19 PM 41.2589 -81.8400 288° West 141 162 10,100  Level Cleveland Center
Fri 02:02:20 PM 41.2708 -81.8872 289° West 141 162 10,100  Level Cleveland Center
Fri 02:03:21 PM 41.2869 -81.9344 294° West 142 163 10,100  Level Cleveland Center
Fri 02:04:40 PM 41.3281 -81.9794 321° Northwest 142 163 10,100  Level Cleveland Center
Fri 02:05:40 PM 41.3569 -82.0161 316° Northwest 141 162 10,100 -248 Level Cleveland Center
Fri 02:06:41 PM 41.3897 -82.0583 316° Northwest 161 185 9,600 -511 Descending Cleveland Center
Fri 02:08:00 PM 41.4239 -82.1029 316° Northwest  Level FlightAware Approximate
Fri 02:08:36 PM 41.4492 -82.1372 316° Northwest 168 193 8,600  Level Cleveland Center
Fri 02:09:37 PM 41.4858 -82.1853 316° Northwest 172 198 8,000 -271 Descending Cleveland Center
Fri 02:10:49 PM 41.5247 -82.2361 316° Northwest 156 180 8,000  Level Cleveland Center
Fri 02:11:26 PM 41.5350 -82.2642 296° West 151 174 8,000  Level Cleveland Center
Fri 02:12:27 PM 41.5508 -82.3117 294° West 149 171 8,000  Level Cleveland Center
Fri 02:13:34 PM 41.5814 -82.3542 314° West 167 192 8,000  Level Cleveland Center
Fri 02:14:08 PM 41.6086 -82.3439 16° North 168 193 8,000  Level Cleveland Center
Fri 02:15:08 PM 41.6422 -82.3281 19° North 184 212 8,000  Level Cleveland Center
Fri 02:16:08 PM 41.6928 -82.3072 17° North 179 206 8,000  Level Cleveland Center
Fri 02:17:08 PM 41.7367 -82.2861 20° North 173 199 8,000  Level Cleveland Center
Fri 02:18:08 PM 41.7808 -82.2678 17° North 168 193 8,000  Level Cleveland Center
Fri 02:19:08 PM 41.8250 -82.2467 20° North 168 193 8,000  Level Cleveland Center
Fri 02:20:08 PM 41.8711 -82.2256 19° North 168 193 8,000  Level Cleveland Center
Fri 02:21:08 PM 41.9150 -82.2044 20° North 168 193 8,000  Level Cleveland Center
Fri 02:22:08 PM 41.9592 -82.1858 17° North 168 193 8,000  Level Cleveland Center
Fri 02:23:08 PM 42.0031 -82.1814 North 163 188 8,000  Level Cleveland Center
Fri 02:24:08 PM 42.0467 -82.1853 356° North 157 181 8,000  Level Cleveland Center
Fri 02:25:08 PM 42.0883 -82.2003 345° North 157 181 8,000  Level Cleveland Center
Fri 02:26:08 PM 42.1317 -82.2183 343° North 162 186 8,000  Level Cleveland Center
Fri 02:27:08 PM 42.1731 -82.2389 340° North 162 186 8,000  Level Cleveland Center
Fri 02:28:08 PM 42.2125 -82.2567 342° North 162 186 8,000  Level Cleveland Center
Fri 02:28:44 PM 42.2436 -82.2689 344° North 154 177 8,000  Level Cleveland Center
Fri 02:29:57 PM 42.2933 -82.2925 341° North 154 177 8,000  Level Cleveland Center
Fri 02:30:58 PM 42.3239 -82.3272 320° Northwest 147 169 8,000 -137 Level Cleveland Center
Fri 02:32:08 PM 42.3544 -82.3731 312° West 155 178 7,700 -323 Descending Cleveland Center
Fri 02:33:08 PM 42.3744 -82.4297 296° West 162 186 7,300 -454 Descending Cleveland Center
Fri 02:34:07 PM 42.3922 -82.4950 290° West 169 194 6,800 -400 Descending Cleveland Center
Fri 02:35:08 PM 42.3994 -82.5514 280° West 168 193 6,500 -347 Descending Cleveland Center
Fri 02:36:08 PM 42.4069 -82.6136 279° West 168 193 6,100 -400 Descending Cleveland Center
Fri 02:37:08 PM 42.4183 -82.6728 285° West 168 193 5,700 -400 Descending Cleveland Center
Fri 02:38:08 PM 42.4275 -82.7350 281° West 168 193 5,300 -419 Descending Cleveland Center
Fri 02:39:17 PM 42.4469 -82.8061 290° West 163 188 4,800 -169 Descending Cleveland Center
Fri 02:40:30 PM 42.4644 -82.8686 291° West 146 168 4,900 98 Climbing Cleveland Center
Fri 02:41:19 PM 42.4783 -82.9142 292° West 152 175 5,000 -55 Climbing Cleveland Center
Fri 02:42:20 PM 42.4958 -82.9683 294° West 156 180 4,800 -344 Descending Cleveland Center
Fri 02:43:21 PM 42.5242 -83.0144 310° West 164 189 4,300 -375 Descending Cleveland Center
Fri 02:44:28 PM 42.5586 -83.0608 315° West 149 171 4,000 -148 Descending Cleveland Center
Fri 02:45:23 PM 42.5828 -83.0986 311° West 147 169 4,000  Level Cleveland Center
Fri 02:46:24 PM 42.6067 -83.1475 304° West 151 174 4,000  Level Cleveland Center
Fri 02:47:25 PM 42.6200 -83.1989 289° West 149 171 4,000 -155 Level Cleveland Center
Fri 02:48:20 PM 42.6400 -83.2447 301° West 153 176 3,700 -517 Descending Cleveland Center
Fri 02:49:21 PM 42.6575 -83.2992 294° West 157 181 3,000 -750 Descending Cleveland Center
Fri 02:50:28 PM 42.6686 -83.3506 286° West 116 133 2,100 -750 Descending Cleveland Center
Fri 02:51:29 PM 42.6678 -83.3928 268° West 109 125 1,400 -689 Descending Cleveland Center

Login

Don't have an account? Register now (free) for customized features, flight alerts, and more!